sensor_id;sensor_type;location;lat;lon;timestamp;temperature;humidity
43987;DHT22;29650;47.378;8.300;2022-09-09T00:00:48;15.40;99.90
43987;DHT22;29650;47.378;8.300;2022-09-09T00:03:21;15.40;99.90
43987;DHT22;29650;47.378;8.300;2022-09-09T00:05:54;15.50;99.90
43987;DHT22;29650;47.378;8.300;2022-09-09T00:08:31;15.50;99.90
43987;DHT22;29650;47.378;8.300;2022-09-09T00:11:03;15.60;99.90
43987;DHT22;29650;47.378;8.300;2022-09-09T00:13:36;15.70;99.90
43987;DHT22;29650;47.378;8.300;2022-09-09T00:16:08;15.80;99.90
43987;DHT22;29650;47.378;8.300;2022-09-09T00:18:50;15.90;99.90
43987;DHT22;29650;47.378;8.300;2022-09-09T00:21:18;16.00;99.90
43987;DHT22;29650;47.378;8.300;2022-09-09T00:23:50;15.90;99.90
43987;DHT22;29650;47.378;8.300;2022-09-09T00:26:20;15.90;99.90
43987;DHT22;29650;47.378;8.300;2022-09-09T00:28:52;15.90;99.90
43987;DHT22;29650;47.378;8.300;2022-09-09T00:31:25;15.80;99.90
43987;DHT22;29650;47.378;8.300;2022-09-09T00:33:55;15.80;99.90
43987;DHT22;29650;47.378;8.300;2022-09-09T00:36:27;15.70;99.90
43987;DHT22;29650;47.378;8.300;2022-09-09T00:38:57;15.70;99.90
43987;DHT22;29650;47.378;8.300;2022-09-09T00:41:32;15.50;99.90
43987;DHT22;29650;47.378;8.300;2022-09-09T00:44:16;15.40;99.90
43987;DHT22;29650;47.378;8.300;2022-09-09T00:46:59;15.50;99.90
43987;DHT22;29650;47.378;8.300;2022-09-09T00:49:41;15.50;99.90
43987;DHT22;29650;47.378;8.300;2022-09-09T00:52:22;15.40;99.90
43987;DHT22;29650;47.378;8.300;2022-09-09T00:54:55;15.50;99.90
43987;DHT22;29650;47.378;8.300;2022-09-09T00:57:28;15.50;99.90
43987;DHT22;29650;47.378;8.300;2022-09-09T01:00:02;15.60;99.90
43987;DHT22;29650;47.378;8.300;2022-09-09T01:02:39;15.50;99.90
43987;DHT22;29650;47.378;8.300;2022-09-09T01:05:13;15.40;99.90
43987;DHT22;29650;47.378;8.300;2022-09-09T01:07:47;15.40;99.90
43987;DHT22;29650;47.378;8.300;2022-09-09T01:10:21;15.50;99.90
43987;DHT22;29650;47.378;8.300;2022-09-09T01:12:54;15.70;99.90
43987;DHT22;29650;47.378;8.300;2022-09-09T01:15:25;15.80;99.90
43987;DHT22;29650;47.378;8.300;2022-09-09T01:17:59;15.80;99.90
43987;DHT22;29650;47.378;8.300;2022-09-09T01:20:31;15.60;99.90
43987;DHT22;29650;47.378;8.300;2022-09-09T01:23:20;15.60;99.90
43987;DHT22;29650;47.378;8.300;2022-09-09T01:26:10;15.60;99.90
43987;DHT22;29650;47.378;8.300;2022-09-09T01:28:40;15.60;99.90
43987;DHT22;29650;47.378;8.300;2022-09-09T01:31:09;15.60;99.90
43987;DHT22;29650;47.378;8.300;2022-09-09T01:33:38;15.60;99.90
43987;DHT22;29650;47.378;8.300;2022-09-09T01:36:07;15.40;99.90
43987;DHT22;29650;47.378;8.300;2022-09-09T01:38:35;15.40;99.90
43987;DHT22;29650;47.378;8.300;2022-09-09T01:41:04;15.40;99.90
43987;DHT22;29650;47.378;8.300;2022-09-09T01:43:31;15.50;99.90
43987;DHT22;29650;47.378;8.300;2022-09-09T01:46:01;15.50;99.90
43987;DHT22;29650;47.378;8.300;2022-09-09T01:48:28;15.60;99.90
43987;DHT22;29650;47.378;8.300;2022-09-09T01:50:55;15.70;99.90
43987;DHT22;29650;47.378;8.300;2022-09-09T01:53:22;15.60;99.90
43987;DHT22;29650;47.378;8.300;2022-09-09T01:55:58;15.70;99.90
43987;DHT22;29650;47.378;8.300;2022-09-09T01:58:34;15.70;99.90
43987;DHT22;29650;47.378;8.300;2022-09-09T02:01:09;15.70;99.90
43987;DHT22;29650;47.378;8.300;2022-09-09T02:03:46;15.60;99.90
43987;DHT22;29650;47.378;8.300;2022-09-09T02:06:24;15.70;99.90
43987;DHT22;29650;47.378;8.300;2022-09-09T02:08:55;15.50;99.90
43987;DHT22;29650;47.378;8.300;2022-09-09T02:11:23;15.50;99.90
43987;DHT22;29650;47.378;8.300;2022-09-09T02:13:57;15.40;99.90
43987;DHT22;29650;47.378;8.300;2022-09-09T02:16:28;15.60;99.90
43987;DHT22;29650;47.378;8.300;2022-09-09T02:19:01;15.60;99.90
43987;DHT22;29650;47.378;8.300;2022-09-09T02:21:30;15.70;99.90
43987;DHT22;29650;47.378;8.300;2022-09-09T02:24:03;15.60;99.90
43987;DHT22;29650;47.378;8.300;2022-09-09T02:26:34;15.60;99.90
43987;DHT22;29650;47.378;8.300;2022-09-09T02:29:08;15.50;99.90
43987;DHT22;29650;47.378;8.300;2022-09-09T02:31:37;15.60;99.90
43987;DHT22;29650;47.378;8.300;2022-09-09T02:34:05;15.60;99.90
43987;DHT22;29650;47.378;8.300;2022-09-09T02:36:37;15.60;99.90
43987;DHT22;29650;47.378;8.300;2022-09-09T02:39:08;15.60;99.90
43987;DHT22;29650;47.378;8.300;2022-09-09T02:41:37;15.60;99.90
43987;DHT22;29650;47.378;8.300;2022-09-09T02:44:10;15.60;99.90
43987;DHT22;29650;47.378;8.300;2022-09-09T02:46:48;15.50;99.90
43987;DHT22;29650;47.378;8.300;2022-09-09T02:49:21;15.50;99.90
43987;DHT22;29650;47.378;8.300;2022-09-09T02:51:53;15.50;99.90
43987;DHT22;29650;47.378;8.300;2022-09-09T02:54:27;15.50;99.90
43987;DHT22;29650;47.378;8.300;2022-09-09T02:57:10;15.50;99.90
43987;DHT22;29650;47.378;8.300;2022-09-09T02:59:39;15.50;99.90
43987;DHT22;29650;47.378;8.300;2022-09-09T03:02:07;15.50;99.90
43987;DHT22;29650;47.378;8.300;2022-09-09T03:04:35;15.60;99.90
43987;DHT22;29650;47.378;8.300;2022-09-09T03:07:02;15.50;99.90
43987;DHT22;29650;47.378;8.300;2022-09-09T03:09:30;15.50;99.90
43987;DHT22;29650;47.378;8.300;2022-09-09T03:11:58;15.60;99.90
43987;DHT22;29650;47.378;8.300;2022-09-09T03:14:25;15.50;99.90
43987;DHT22;29650;47.378;8.300;2022-09-09T03:16:54;15.50;99.90
43987;DHT22;29650;47.378;8.300;2022-09-09T03:19:21;15.60;99.90
43987;DHT22;29650;47.378;8.300;2022-09-09T03:21:48;15.60;99.90
43987;DHT22;29650;47.378;8.300;2022-09-09T03:24:16;15.60;99.90
43987;DHT22;29650;47.378;8.300;2022-09-09T03:26:43;15.50;99.90
43987;DHT22;29650;47.378;8.300;2022-09-09T03:29:11;15.50;99.90
43987;DHT22;29650;47.378;8.300;2022-09-09T03:31:39;15.40;99.90
43987;DHT22;29650;47.378;8.300;2022-09-09T03:34:07;15.40;99.90
43987;DHT22;29650;47.378;8.300;2022-09-09T03:36:34;15.40;99.90
43987;DHT22;29650;47.378;8.300;2022-09-09T03:39:01;15.60;99.90
43987;DHT22;29650;47.378;8.300;2022-09-09T03:41:29;15.60;99.90
43987;DHT22;29650;47.378;8.300;2022-09-09T03:43:56;15.60;99.90
43987;DHT22;29650;47.378;8.300;2022-09-09T03:46:25;15.60;99.90
43987;DHT22;29650;47.378;8.300;2022-09-09T03:48:52;15.70;99.90
43987;DHT22;29650;47.378;8.300;2022-09-09T03:51:20;15.60;99.90
43987;DHT22;29650;47.378;8.300;2022-09-09T03:53:48;15.80;99.90
43987;DHT22;29650;47.378;8.300;2022-09-09T03:56:15;15.80;99.90
43987;DHT22;29650;47.378;8.300;2022-09-09T03:58:41;15.60;99.90
43987;DHT22;29650;47.378;8.300;2022-09-09T04:01:10;17.10;99.90
43987;DHT22;29650;47.378;8.300;2022-09-09T04:03:39;15.70;99.90
43987;DHT22;29650;47.378;8.300;2022-09-09T04:06:06;15.70;99.90
43987;DHT22;29650;47.378;8.300;2022-09-09T04:08:36;15.60;99.90
43987;DHT22;29650;47.378;8.300;2022-09-09T04:11:04;15.60;99.90
43987;DHT22;29650;47.378;8.300;2022-09-09T04:13:32;15.60;99.90
43987;DHT22;29650;47.378;8.300;2022-09-09T04:16:01;15.60;99.90
43987;DHT22;29650;47.378;8.300;2022-09-09T04:18:29;15.50;99.90
43987;DHT22;29650;47.378;8.300;2022-09-09T04:20:56;15.70;99.90
43987;DHT22;29650;47.378;8.300;2022-09-09T04:23:24;15.70;99.90
43987;DHT22;29650;47.378;8.300;2022-09-09T04:25:55;14.80;99.90
43987;DHT22;29650;47.378;8.300;2022-09-09T04:28:24;15.70;99.90
43987;DHT22;29650;47.378;8.300;2022-09-09T04:30:51;15.70;99.90
43987;DHT22;29650;47.378;8.300;2022-09-09T04:33:19;15.60;99.90
43987;DHT22;29650;47.378;8.300;2022-09-09T04:35:47;15.60;99.90
43987;DHT22;29650;47.378;8.300;2022-09-09T04:38:15;15.50;99.90
43987;DHT22;29650;47.378;8.300;2022-09-09T04:40:43;15.50;99.90
43987;DHT22;29650;47.378;8.300;2022-09-09T04:43:12;15.40;99.90
43987;DHT22;29650;47.378;8.300;2022-09-09T04:45:40;15.40;99.90
43987;DHT22;29650;47.378;8.300;2022-09-09T04:48:07;15.40;99.90
43987;DHT22;29650;47.378;8.300;2022-09-09T04:50:35;15.40;99.90
43987;DHT22;29650;47.378;8.300;2022-09-09T04:53:02;15.50;99.90
43987;DHT22;29650;47.378;8.300;2022-09-09T04:55:30;15.50;99.90
43987;DHT22;29650;47.378;8.300;2022-09-09T04:57:57;15.30;99.90
43987;DHT22;29650;47.378;8.300;2022-09-09T05:00:26;15.50;99.90
43987;DHT22;29650;47.378;8.300;2022-09-09T05:02:52;15.70;99.90
43987;DHT22;29650;47.378;8.300;2022-09-09T05:05:19;15.70;99.90
43987;DHT22;29650;47.378;8.300;2022-09-09T05:07:46;15.50;99.90
43987;DHT22;29650;47.378;8.300;2022-09-09T05:10:13;15.60;99.90
43987;DHT22;29650;47.378;8.300;2022-09-09T05:12:42;15.60;99.90
43987;DHT22;29650;47.378;8.300;2022-09-09T05:15:09;15.60;99.90
43987;DHT22;29650;47.378;8.300;2022-09-09T05:17:38;15.50;99.90
43987;DHT22;29650;47.378;8.300;2022-09-09T05:20:06;15.60;99.90
43987;DHT22;29650;47.378;8.300;2022-09-09T05:22:33;15.60;99.90
43987;DHT22;29650;47.378;8.300;2022-09-09T05:25:00;15.40;99.90
43987;DHT22;29650;47.378;8.300;2022-09-09T05:27:27;15.50;99.90
43987;DHT22;29650;47.378;8.300;2022-09-09T05:29:54;15.40;99.90
43987;DHT22;29650;47.378;8.300;2022-09-09T05:32:22;15.50;99.90
43987;DHT22;29650;47.378;8.300;2022-09-09T05:34:51;15.60;99.90
43987;DHT22;29650;47.378;8.300;2022-09-09T05:37:18;15.60;99.90
43987;DHT22;29650;47.378;8.300;2022-09-09T05:39:45;15.70;99.90
43987;DHT22;29650;47.378;8.300;2022-09-09T05:42:11;15.70;99.90
43987;DHT22;29650;47.378;8.300;2022-09-09T05:44:38;15.70;99.90
43987;DHT22;29650;47.378;8.300;2022-09-09T05:47:07;15.80;99.90
43987;DHT22;29650;47.378;8.300;2022-09-09T05:49:35;15.80;99.90
43987;DHT22;29650;47.378;8.300;2022-09-09T05:52:03;15.70;99.90
43987;DHT22;29650;47.378;8.300;2022-09-09T05:54:30;15.80;99.90
43987;DHT22;29650;47.378;8.300;2022-09-09T05:56:58;15.80;99.90
43987;DHT22;29650;47.378;8.300;2022-09-09T05:59:25;15.90;99.90
43987;DHT22;29650;47.378;8.300;2022-09-09T06:01:51;15.90;99.90
43987;DHT22;29650;47.378;8.300;2022-09-09T06:04:19;16.00;99.90
43987;DHT22;29650;47.378;8.300;2022-09-09T06:06:48;15.90;99.90
43987;DHT22;29650;47.378;8.300;2022-09-09T06:09:16;16.00;99.90
43987;DHT22;29650;47.378;8.300;2022-09-09T06:11:43;15.90;99.90
43987;DHT22;29650;47.378;8.300;2022-09-09T06:14:11;15.90;99.90
43987;DHT22;29650;47.378;8.300;2022-09-09T06:16:38;15.90;99.90
43987;DHT22;29650;47.378;8.300;2022-09-09T06:19:05;16.00;99.90
43987;DHT22;29650;47.378;8.300;2022-09-09T06:21:33;16.00;99.90
43987;DHT22;29650;47.378;8.300;2022-09-09T06:24:02;15.90;99.90
43987;DHT22;29650;47.378;8.300;2022-09-09T06:26:32;16.10;99.90
43987;DHT22;29650;47.378;8.300;2022-09-09T06:29:00;16.10;99.90
43987;DHT22;29650;47.378;8.300;2022-09-09T06:31:29;16.20;99.90
43987;DHT22;29650;47.378;8.300;2022-09-09T06:33:57;16.30;99.90
43987;DHT22;29650;47.378;8.300;2022-09-09T06:36:26;16.50;99.90
43987;DHT22;29650;47.378;8.300;2022-09-09T06:38:53;16.50;99.90
43987;DHT22;29650;47.378;8.300;2022-09-09T06:41:22;16.70;99.90
43987;DHT22;29650;47.378;8.300;2022-09-09T06:43:50;16.70;99.90
43987;DHT22;29650;47.378;8.300;2022-09-09T06:46:20;16.70;99.90
43987;DHT22;29650;47.378;8.300;2022-09-09T06:48:48;16.70;99.90
43987;DHT22;29650;47.378;8.300;2022-09-09T06:51:16;16.70;99.90
43987;DHT22;29650;47.378;8.300;2022-09-09T06:53:45;16.70;99.90
43987;DHT22;29650;47.378;8.300;2022-09-09T06:56:20;16.80;99.90
43987;DHT22;29650;47.378;8.300;2022-09-09T06:58:51;17.00;99.90
43987;DHT22;29650;47.378;8.300;2022-09-09T07:01:21;16.90;99.90
43987;DHT22;29650;47.378;8.300;2022-09-09T07:03:50;16.90;99.90
43987;DHT22;29650;47.378;8.300;2022-09-09T07:06:19;16.90;99.90
43987;DHT22;29650;47.378;8.300;2022-09-09T07:08:50;17.00;99.90
43987;DHT22;29650;47.378;8.300;2022-09-09T07:11:18;16.90;99.90
43987;DHT22;29650;47.378;8.300;2022-09-09T07:13:46;16.90;99.90
43987;DHT22;29650;47.378;8.300;2022-09-09T07:16:16;17.00;99.90
43987;DHT22;29650;47.378;8.300;2022-09-09T07:18:43;17.10;99.90
43987;DHT22;29650;47.378;8.300;2022-09-09T07:21:11;17.30;99.90
43987;DHT22;29650;47.378;8.300;2022-09-09T07:23:39;17.40;99.90
43987;DHT22;29650;47.378;8.300;2022-09-09T07:26:08;17.50;99.90
43987;DHT22;29650;47.378;8.300;2022-09-09T07:28:36;17.70;99.90
43987;DHT22;29650;47.378;8.300;2022-09-09T07:31:04;17.90;99.90
43987;DHT22;29650;47.378;8.300;2022-09-09T07:33:34;18.00;99.90
43987;DHT22;29650;47.378;8.300;2022-09-09T07:36:04;18.00;99.90
43987;DHT22;29650;47.378;8.300;2022-09-09T07:38:33;18.00;99.90
43987;DHT22;29650;47.378;8.300;2022-09-09T07:41:04;18.10;99.90
43987;DHT22;29650;47.378;8.300;2022-09-09T07:43:31;18.10;99.90
43987;DHT22;29650;47.378;8.300;2022-09-09T07:45:58;17.90;99.90
43987;DHT22;29650;47.378;8.300;2022-09-09T07:48:27;18.10;99.90
43987;DHT22;29650;47.378;8.300;2022-09-09T07:51:05;18.10;99.90
43987;DHT22;29650;47.378;8.300;2022-09-09T07:53:32;18.30;99.90
43987;DHT22;29650;47.378;8.300;2022-09-09T07:56:03;18.50;99.90
43987;DHT22;29650;47.378;8.300;2022-09-09T07:58:30;18.60;99.90
43987;DHT22;29650;47.378;8.300;2022-09-09T08:00:57;18.50;99.90
43987;DHT22;29650;47.378;8.300;2022-09-09T08:03:24;18.50;99.90
43987;DHT22;29650;47.378;8.300;2022-09-09T08:05:52;18.30;99.90
43987;DHT22;29650;47.378;8.300;2022-09-09T08:08:20;18.20;99.90
43987;DHT22;29650;47.378;8.300;2022-09-09T08:10:47;18.20;99.90
43987;DHT22;29650;47.378;8.300;2022-09-09T08:13:14;17.90;99.90
43987;DHT22;29650;47.378;8.300;2022-09-09T08:15:42;18.10;99.90
43987;DHT22;29650;47.378;8.300;2022-09-09T08:18:09;18.30;99.90
43987;DHT22;29650;47.378;8.300;2022-09-09T08:20:37;18.30;99.90
43987;DHT22;29650;47.378;8.300;2022-09-09T08:23:04;18.30;99.90
43987;DHT22;29650;47.378;8.300;2022-09-09T08:25:32;18.70;99.90
43987;DHT22;29650;47.378;8.300;2022-09-09T08:28:00;18.50;99.90
43987;DHT22;29650;47.378;8.300;2022-09-09T08:30:27;18.50;99.90
43987;DHT22;29650;47.378;8.300;2022-09-09T08:32:54;18.50;99.90
43987;DHT22;29650;47.378;8.300;2022-09-09T08:35:20;18.70;99.90
43987;DHT22;29650;47.378;8.300;2022-09-09T08:37:47;18.90;99.90
43987;DHT22;29650;47.378;8.300;2022-09-09T08:40:21;19.00;99.90
43987;DHT22;29650;47.378;8.300;2022-09-09T08:42:53;19.00;99.90
43987;DHT22;29650;47.378;8.300;2022-09-09T08:45:41;18.40;99.90
43987;DHT22;29650;47.378;8.300;2022-09-09T08:48:23;18.30;99.90
43987;DHT22;29650;47.378;8.300;2022-09-09T08:50:55;18.30;99.90
43987;DHT22;29650;47.378;8.300;2022-09-09T08:53:28;18.10;99.90
43987;DHT22;29650;47.378;8.300;2022-09-09T08:55:56;18.20;99.90
43987;DHT22;29650;47.378;8.300;2022-09-09T08:58:28;18.60;99.90
43987;DHT22;29650;47.378;8.300;2022-09-09T09:01:12;18.70;99.90
43987;DHT22;29650;47.378;8.300;2022-09-09T09:03:48;19.00;99.90
43987;DHT22;29650;47.378;8.300;2022-09-09T09:06:26;18.70;99.90
43987;DHT22;29650;47.378;8.300;2022-09-09T09:09:02;19.10;99.90
43987;DHT22;29650;47.378;8.300;2022-09-09T09:11:36;19.20;99.90
43987;DHT22;29650;47.378;8.300;2022-09-09T09:14:09;19.40;99.90
43987;DHT22;29650;47.378;8.300;2022-09-09T09:16:40;19.70;99.90
43987;DHT22;29650;47.378;8.300;2022-09-09T09:19:13;20.00;99.90
43987;DHT22;29650;47.378;8.300;2022-09-09T09:21:43;20.00;99.90
43987;DHT22;29650;47.378;8.300;2022-09-09T09:24:16;19.70;99.90
43987;DHT22;29650;47.378;8.300;2022-09-09T09:26:44;19.80;99.90
43987;DHT22;29650;47.378;8.300;2022-09-09T09:29:14;20.00;98.60
43987;DHT22;29650;47.378;8.300;2022-09-09T09:31:44;20.20;99.10
43987;DHT22;29650;47.378;8.300;2022-09-09T09:34:13;19.80;98.10
43987;DHT22;29650;47.378;8.300;2022-09-09T09:36:43;19.90;96.90
43987;DHT22;29650;47.378;8.300;2022-09-09T09:39:23;19.90;97.50
43987;DHT22;29650;47.378;8.300;2022-09-09T09:41:52;19.80;98.10
43987;DHT22;29650;47.378;8.300;2022-09-09T09:44:26;19.80;98.10
43987;DHT22;29650;47.378;8.300;2022-09-09T09:47:05;19.60;96.90
43987;DHT22;29650;47.378;8.300;2022-09-09T09:49:33;19.90;97.00
43987;DHT22;29650;47.378;8.300;2022-09-09T09:52:00;20.10;97.50
43987;DHT22;29650;47.378;8.300;2022-09-09T09:54:29;20.10;97.40
43987;DHT22;29650;47.378;8.300;2022-09-09T09:57:08;20.00;96.10
43987;DHT22;29650;47.378;8.300;2022-09-09T09:59:37;19.50;97.70
43987;DHT22;29650;47.378;8.300;2022-09-09T10:02:17;18.90;98.90
43987;DHT22;29650;47.378;8.300;2022-09-09T10:04:45;18.70;99.90
43987;DHT22;29650;47.378;8.300;2022-09-09T10:07:13;18.50;99.90
43987;DHT22;29650;47.378;8.300;2022-09-09T10:09:42;18.30;99.90
43987;DHT22;29650;47.378;8.300;2022-09-09T10:12:18;18.30;99.90
43987;DHT22;29650;47.378;8.300;2022-09-09T10:14:55;18.40;99.90
43987;DHT22;29650;47.378;8.300;2022-09-09T10:17:31;18.50;99.90
43987;DHT22;29650;47.378;8.300;2022-09-09T10:20:14;18.70;99.90
43987;DHT22;29650;47.378;8.300;2022-09-09T10:22:49;18.90;99.90
43987;DHT22;29650;47.378;8.300;2022-09-09T10:25:24;18.90;99.70
43987;DHT22;29650;47.378;8.300;2022-09-09T10:28:11;19.20;99.90
43987;DHT22;29650;47.378;8.300;2022-09-09T10:30:52;19.20;98.30
43987;DHT22;29650;47.378;8.300;2022-09-09T10:33:28;19.30;99.70
43987;DHT22;29650;47.378;8.300;2022-09-09T10:36:03;19.30;98.70
43987;DHT22;29650;47.378;8.300;2022-09-09T10:38:39;19.40;99.90
43987;DHT22;29650;47.378;8.300;2022-09-09T10:41:17;19.00;99.90
43987;DHT22;29650;47.378;8.300;2022-09-09T10:44:15;19.00;99.90
43987;DHT22;29650;47.378;8.300;2022-09-09T10:46:59;19.40;99.90
43987;DHT22;29650;47.378;8.300;2022-09-09T10:49:52;19.50;99.90
43987;DHT22;29650;47.378;8.300;2022-09-09T10:52:24;19.60;99.90
43987;DHT22;29650;47.378;8.300;2022-09-09T10:54:58;19.60;99.90
43987;DHT22;29650;47.378;8.300;2022-09-09T10:57:29;19.70;99.00
43987;DHT22;29650;47.378;8.300;2022-09-09T11:00:03;19.90;98.80
43987;DHT22;29650;47.378;8.300;2022-09-09T11:02:34;19.90;97.10
43987;DHT22;29650;47.378;8.300;2022-09-09T11:05:04;20.00;98.30
43987;DHT22;29650;47.378;8.300;2022-09-09T11:07:37;20.50;97.00
43987;DHT22;29650;47.378;8.300;2022-09-09T11:10:17;20.60;96.60
43987;DHT22;29650;47.378;8.300;2022-09-09T11:12:48;20.50;96.30
43987;DHT22;29650;47.378;8.300;2022-09-09T11:15:20;20.70;95.80
43987;DHT22;29650;47.378;8.300;2022-09-09T11:17:55;20.80;97.70
43987;DHT22;29650;47.378;8.300;2022-09-09T11:20:22;21.30;96.90
43987;DHT22;29650;47.378;8.300;2022-09-09T11:22:53;21.50;96.80
43987;DHT22;29650;47.378;8.300;2022-09-09T11:25:25;21.70;96.90
43987;DHT22;29650;47.378;8.300;2022-09-09T11:28:11;21.90;94.70
43987;DHT22;29650;47.378;8.300;2022-09-09T11:30:48;21.60;95.10
43987;DHT22;29650;47.378;8.300;2022-09-09T11:33:42;21.50;92.90
43987;DHT22;29650;47.378;8.300;2022-09-09T11:36:43;21.60;94.40
43987;DHT22;29650;47.378;8.300;2022-09-09T11:42:16;21.60;92.30
43987;DHT22;29650;47.378;8.300;2022-09-09T11:44:44;21.80;91.80
43987;DHT22;29650;47.378;8.300;2022-09-09T11:47:20;21.50;91.00
43987;DHT22;29650;47.378;8.300;2022-09-09T11:49:50;21.70;82.50
43987;DHT22;29650;47.378;8.300;2022-09-09T11:52:23;21.90;80.00
43987;DHT22;29650;47.378;8.300;2022-09-09T11:54:55;22.10;77.80
43987;DHT22;29650;47.378;8.300;2022-09-09T11:57:30;21.90;69.90
43987;DHT22;29650;47.378;8.300;2022-09-09T11:59:58;22.20;67.50
43987;DHT22;29650;47.378;8.300;2022-09-09T12:02:28;22.30;66.30
43987;DHT22;29650;47.378;8.300;2022-09-09T12:05:02;22.20;64.10
43987;DHT22;29650;47.378;8.300;2022-09-09T12:07:34;22.40;64.00
43987;DHT22;29650;47.378;8.300;2022-09-09T12:10:05;22.50;63.50
43987;DHT22;29650;47.378;8.300;2022-09-09T12:12:34;22.30;61.00
43987;DHT22;29650;47.378;8.300;2022-09-09T12:15:27;22.30;62.70
43987;DHT22;29650;47.378;8.300;2022-09-09T12:17:56;22.60;62.70
43987;DHT22;29650;47.378;8.300;2022-09-09T12:20:31;22.70;62.00
43987;DHT22;29650;47.378;8.300;2022-09-09T12:23:25;23.00;61.90
43987;DHT22;29650;47.378;8.300;2022-09-09T12:29:04;22.60;61.00
43987;DHT22;29650;47.378;8.300;2022-09-09T12:31:38;22.90;61.50
43987;DHT22;29650;47.378;8.300;2022-09-09T12:34:11;23.00;59.80
43987;DHT22;29650;47.378;8.300;2022-09-09T12:36:41;23.30;61.40
43987;DHT22;29650;47.378;8.300;2022-09-09T12:39:17;23.20;59.20
43987;DHT22;29650;47.378;8.300;2022-09-09T12:41:51;23.60;57.10
43987;DHT22;29650;47.378;8.300;2022-09-09T12:44:23;23.60;56.70
43987;DHT22;29650;47.378;8.300;2022-09-09T12:46:51;23.10;56.90
43987;DHT22;29650;47.378;8.300;2022-09-09T12:49:29;23.10;59.30
43987;DHT22;29650;47.378;8.300;2022-09-09T12:52:02;23.00;56.50
43987;DHT22;29650;47.378;8.300;2022-09-09T12:54:31;22.70;56.60
43987;DHT22;29650;47.378;8.300;2022-09-09T12:56:58;22.90;58.20
43987;DHT22;29650;47.378;8.300;2022-09-09T12:59:34;22.90;57.30
43987;DHT22;29650;47.378;8.300;2022-09-09T13:02:01;23.10;54.00
43987;DHT22;29650;47.378;8.300;2022-09-09T13:04:28;23.30;53.00
43987;DHT22;29650;47.378;8.300;2022-09-09T13:07:06;23.20;52.20
43987;DHT22;29650;47.378;8.300;2022-09-09T13:09:35;23.30;52.60
43987;DHT22;29650;47.378;8.300;2022-09-09T13:12:04;23.50;52.00
43987;DHT22;29650;47.378;8.300;2022-09-09T13:14:34;23.00;51.70
43987;DHT22;29650;47.378;8.300;2022-09-09T13:17:04;23.00;51.40
43987;DHT22;29650;47.378;8.300;2022-09-09T13:19:35;23.30;51.60
43987;DHT22;29650;47.378;8.300;2022-09-09T13:22:13;23.10;50.30
43987;DHT22;29650;47.378;8.300;2022-09-09T13:24:40;23.50;51.60
43987;DHT22;29650;47.378;8.300;2022-09-09T13:27:26;23.40;50.60
43987;DHT22;29650;47.378;8.300;2022-09-09T13:29:55;23.30;49.20
43987;DHT22;29650;47.378;8.300;2022-09-09T13:32:23;23.30;49.70
43987;DHT22;29650;47.378;8.300;2022-09-09T13:34:51;23.10;50.10
43987;DHT22;29650;47.378;8.300;2022-09-09T13:37:23;23.40;50.40
43987;DHT22;29650;47.378;8.300;2022-09-09T13:39:52;23.40;50.90
43987;DHT22;29650;47.378;8.300;2022-09-09T13:42:25;23.50;51.60
43987;DHT22;29650;47.378;8.300;2022-09-09T13:44:53;23.50;52.40
43987;DHT22;29650;47.378;8.300;2022-09-09T13:47:26;23.50;52.20
43987;DHT22;29650;47.378;8.300;2022-09-09T13:49:54;23.20;53.20
43987;DHT22;29650;47.378;8.300;2022-09-09T13:52:22;23.10;51.80
43987;DHT22;29650;47.378;8.300;2022-09-09T13:54:52;22.60;52.10
43987;DHT22;29650;47.378;8.300;2022-09-09T13:57:21;22.70;52.00
43987;DHT22;29650;47.378;8.300;2022-09-09T13:59:49;23.10;52.50
43987;DHT22;29650;47.378;8.300;2022-09-09T14:02:16;23.40;52.60
43987;DHT22;29650;47.378;8.300;2022-09-09T14:04:43;23.20;52.20
43987;DHT22;29650;47.378;8.300;2022-09-09T14:07:12;22.90;52.20
43987;DHT22;29650;47.378;8.300;2022-09-09T14:09:41;23.20;52.10
43987;DHT22;29650;47.378;8.300;2022-09-09T14:12:09;23.20;53.30
43987;DHT22;29650;47.378;8.300;2022-09-09T14:14:37;22.90;62.80
43987;DHT22;29650;47.378;8.300;2022-09-09T14:17:04;22.50;65.20
43987;DHT22;29650;47.378;8.300;2022-09-09T14:19:32;22.30;66.10
43987;DHT22;29650;47.378;8.300;2022-09-09T14:21:59;22.30;66.70
43987;DHT22;29650;47.378;8.300;2022-09-09T14:24:26;22.40;68.40
43987;DHT22;29650;47.378;8.300;2022-09-09T14:26:55;22.30;67.90
43987;DHT22;29650;47.378;8.300;2022-09-09T14:29:22;22.30;69.00
43987;DHT22;29650;47.378;8.300;2022-09-09T14:31:50;22.50;69.80
43987;DHT22;29650;47.378;8.300;2022-09-09T14:34:17;22.60;69.50
43987;DHT22;29650;47.378;8.300;2022-09-09T14:36:44;22.50;70.00
43987;DHT22;29650;47.378;8.300;2022-09-09T14:39:12;22.40;68.70
43987;DHT22;29650;47.378;8.300;2022-09-09T14:41:39;21.90;68.10
43987;DHT22;29650;47.378;8.300;2022-09-09T14:44:07;22.00;65.10
43987;DHT22;29650;47.378;8.300;2022-09-09T14:46:35;22.10;65.40
43987;DHT22;29650;47.378;8.300;2022-09-09T14:49:02;21.90;63.70
43987;DHT22;29650;47.378;8.300;2022-09-09T14:51:30;22.40;63.80
43987;DHT22;29650;47.378;8.300;2022-09-09T14:53:58;23.10;62.20
43987;DHT22;29650;47.378;8.300;2022-09-09T14:56:27;23.10;60.40
43987;DHT22;29650;47.378;8.300;2022-09-09T14:58:56;23.70;60.50
43987;DHT22;29650;47.378;8.300;2022-09-09T15:01:25;23.50;58.90
43987;DHT22;29650;47.378;8.300;2022-09-09T15:03:54;23.00;59.40
43987;DHT22;29650;47.378;8.300;2022-09-09T15:06:24;23.00;58.80
43987;DHT22;29650;47.378;8.300;2022-09-09T15:08:53;23.00;59.00
43987;DHT22;29650;47.378;8.300;2022-09-09T15:11:20;22.80;59.60
43987;DHT22;29650;47.378;8.300;2022-09-09T15:13:51;22.80;61.60
43987;DHT22;29650;47.378;8.300;2022-09-09T15:16:20;23.30;64.30
43987;DHT22;29650;47.378;8.300;2022-09-09T15:18:51;23.10;61.50
43987;DHT22;29650;47.378;8.300;2022-09-09T15:21:21;22.60;61.10
43987;DHT22;29650;47.378;8.300;2022-09-09T15:23:48;22.80;61.60
43987;DHT22;29650;47.378;8.300;2022-09-09T15:26:16;22.50;62.40
43987;DHT22;29650;47.378;8.300;2022-09-09T15:28:45;22.70;61.90
43987;DHT22;29650;47.378;8.300;2022-09-09T15:31:14;22.90;61.60
43987;DHT22;29650;47.378;8.300;2022-09-09T15:33:47;23.00;62.00
43987;DHT22;29650;47.378;8.300;2022-09-09T15:36:17;23.70;61.50
43987;DHT22;29650;47.378;8.300;2022-09-09T15:38:44;23.40;60.90
43987;DHT22;29650;47.378;8.300;2022-09-09T15:41:11;23.10;59.50
43987;DHT22;29650;47.378;8.300;2022-09-09T15:43:39;22.70;60.10
43987;DHT22;29650;47.378;8.300;2022-09-09T15:46:22;22.90;60.90
43987;DHT22;29650;47.378;8.300;2022-09-09T15:48:53;23.30;58.10
43987;DHT22;29650;47.378;8.300;2022-09-09T15:51:22;22.90;56.20
43987;DHT22;29650;47.378;8.300;2022-09-09T15:53:54;23.60;56.20
43987;DHT22;29650;47.378;8.300;2022-09-09T15:56:21;23.20;55.50
43987;DHT22;29650;47.378;8.300;2022-09-09T15:58:48;22.70;55.70